Time;durP1;ratioP1;P1;durP2;ratioP2;P2;SDS_P1;SDS_P2;PMS_P1;PMS_P2;Temp;Humidity;BMP_temperature;BMP_pressure;BME280_temperature;BME280_humidity;BME280_pressure;Samples;Min_cycle;Max_cycle;Signal;HPM_P1;HPM_P2
2023/03/18 00:01:16;;;;;;;82.40;39.20;;;;;;;1.86;63.18;98972.27;222500;1280;23780;-73
2023/03/18 00:06:30;;;;;;;88.30;42.40;;;;;;;1.74;63.65;98970.67;222448;1280;24277;-72
2023/03/18 00:11:33;;;;;;;87.10;43.20;;;;;;;1.63;63.59;98974.80;222500;1272;22552;-74
2023/03/18 00:16:36;;;;;;;87.00;42.00;;;;;;;1.54;63.70;98964.66;222645;1278;22562;-74
2023/03/18 00:21:46;;;;;;;88.20;42.70;;;;;;;1.45;63.94;98965.46;222725;1280;22997;-72
2023/03/18 00:26:57;;;;;;;83.00;41.10;;;;;;;1.35;64.27;98961.39;222623;1279;22561;-73
2023/03/18 00:32:07;;;;;;;90.10;42.60;;;;;;;1.26;64.62;98954.27;222406;1270;23276;-73
2023/03/18 00:37:18;;;;;;;87.50;41.30;;;;;;;1.20;64.87;98949.76;222791;1278;22657;-73
2023/03/18 00:42:24;;;;;;;79.70;38.50;;;;;;;1.16;65.00;98943.34;222497;1280;25223;-73
2023/03/18 00:47:32;;;;;;;87.00;40.60;;;;;;;1.13;65.15;98941.67;222825;1278;22581;-72
2023/03/18 00:52:55;;;;;;;92.70;45.00;;;;;;;1.09;65.21;98938.16;222656;1280;22565;-73
2023/03/18 00:58:02;;;;;;;98.80;46.00;;;;;;;1.06;65.72;98931.50;222648;1280;22712;-73
2023/03/18 01:03:14;;;;;;;96.30;46.40;;;;;;;1.02;65.47;98928.71;222528;1279;23786;-72
2023/03/18 01:08:42;;;;;;;;;;;;;;;;;;;;;
2023/03/18 01:13:51;;;;;;;95.10;47.30;;;;;;;0.95;65.68;98921.11;222541;1280;23165;-72
2023/03/18 01:18:59;;;;;;;81.30;39.50;;;;;;;0.89;65.95;98919.84;222529;1280;24202;-71
2023/03/18 01:24:03;;;;;;;65.00;33.50;;;;;;;0.85;66.07;98912.96;222747;1269;23969;-71
2023/03/18 01:29:11;;;;;;;64.50;33.10;;;;;;;0.79;66.24;98912.33;222598;1278;23621;-74
2023/03/18 01:34:28;;;;;;;59.10;30.80;;;;;;;0.72;66.44;98905.44;222651;1280;22541;-72
2023/03/18 01:39:35;;;;;;;60.10;31.20;;;;;;;0.68;66.80;98899.23;222326;1280;23715;-71
2023/03/18 01:44:45;;;;;;;62.30;31.70;;;;;;;0.62;66.61;98897.96;222563;1280;22556;-71
2023/03/18 01:49:51;;;;;;;57.80;31.20;;;;;;;0.56;66.87;98896.52;222381;1278;22560;-72
2023/03/18 01:55:05;;;;;;;57.40;31.60;;;;;;;0.51;66.81;98897.30;222535;1280;24244;-74
2023/03/18 02:00:11;;;;;;;58.10;31.00;;;;;;;0.46;66.99;98895.61;222599;1278;22583;-73
2023/03/18 02:05:48;;;;;;;55.20;30.70;;;;;;;0.42;67.05;98890.75;222605;1280;22549;-72
2023/03/18 02:11:08;;;;;;;57.10;30.80;;;;;;;0.38;67.25;98886.02;222347;1280;22569;-71
2023/03/18 02:16:58;;;;;;;63.80;31.20;;;;;;;0.34;67.23;98887.17;222865;1278;22552;-73
2023/03/18 02:22:28;;;;;;;57.40;32.10;;;;;;;0.28;67.87;98886.50;222401;1273;22703;-72
2023/03/18 02:27:43;;;;;;;60.40;31.70;;;;;;;0.21;67.58;98882.66;222554;1274;25369;-72
2023/03/18 02:32:50;;;;;;;58.80;32.10;;;;;;;0.16;67.75;98886.34;222278;1280;25443;-72
2023/03/18 02:37:52;;;;;;;60.60;32.80;;;;;;;0.09;67.89;98881.90;222520;1280;24225;-72
2023/03/18 02:43:16;;;;;;;58.50;29.00;;;;;;;0.02;67.98;98881.73;222625;1280;22568;-73
2023/03/18 02:48:24;;;;;;;55.90;29.20;;;;;;;-0.05;68.06;98883.52;222517;1279;22521;-72
2023/03/18 02:53:27;;;;;;;51.10;28.00;;;;;;;-0.10;68.30;98893.27;222484;1280;22673;-73
2023/03/18 02:58:38;;;;;;;58.10;29.30;;;;;;;-0.14;68.38;98892.89;222297;1266;23797;-72
2023/03/18 03:03:45;;;;;;;51.40;28.30;;;;;;;-0.18;68.70;98898.20;222548;1280;22671;-72
2023/03/18 03:08:56;;;;;;;52.90;28.30;;;;;;;-0.22;68.72;98899.00;222491;1262;22751;-72
2023/03/18 03:13:59;;;;;;;51.40;28.60;;;;;;;-0.25;68.48;98899.25;222428;1278;24212;-71
2023/03/18 03:19:05;;;;;;;49.90;27.30;;;;;;;-0.27;68.80;98901.65;222488;1280;24243;-73
2023/03/18 03:24:15;;;;;;;51.80;27.90;;;;;;;-0.28;68.90;98902.23;222397;1280;24285;-73
2023/03/18 03:29:18;;;;;;;50.80;28.40;;;;;;;-0.30;69.11;98896.88;222296;1280;22669;-73
2023/03/18 03:34:23;;;;;;;51.00;28.20;;;;;;;-0.32;69.31;98897.06;222494;1279;22543;-72
2023/03/18 03:39:32;;;;;;;53.90;30.10;;;;;;;-0.35;69.00;98900.05;222526;1279;24106;-73
2023/03/18 03:44:51;;;;;;;56.00;29.90;;;;;;;-0.39;69.45;98902.25;222669;1263;22577;-72
2023/03/18 03:49:57;;;;;;;53.20;30.70;;;;;;;-0.44;69.68;98903.81;222604;1280;22527;-72
2023/03/18 03:55:12;;;;;;;56.80;30.00;;;;;;;-0.49;69.85;98909.23;222380;1278;24212;-71
2023/03/18 04:00:19;;;;;;;56.40;31.40;;;;;;;-0.55;70.10;98907.59;222558;1280;23789;-72
2023/03/18 04:05:32;;;;;;;54.10;29.00;;;;;;;-0.59;70.53;98908.21;222937;1280;22584;-71
2023/03/18 04:10:57;;;;;;;49.80;27.10;;;;;;;-0.59;70.38;98911.89;222591;1280;22595;-72
2023/03/18 04:16:15;;;;;;;67.10;32.70;;;;;;;-0.58;70.79;98913.14;222416;1280;22642;-72
2023/03/18 04:21:31;;;;;;;57.90;31.30;;;;;;;-0.59;70.77;98912.88;222475;1280;24241;-74
2023/03/18 04:26:38;;;;;;;61.40;33.10;;;;;;;-0.60;71.08;98916.78;222620;1280;22579;-73
2023/03/18 04:31:48;;;;;;;57.50;31.40;;;;;;;-0.61;71.14;98915.70;222352;1280;25169;-73
2023/03/18 04:36:51;;;;;;;52.60;31.90;;;;;;;-0.65;70.89;98917.55;222550;1277;22690;-71
2023/03/18 04:41:57;;;;;;;52.00;30.20;;;;;;;-0.69;70.87;98916.09;222491;1274;23917;-70
2023/03/18 04:47:18;;;;;;;53.70;31.10;;;;;;;-0.74;71.74;98919.55;222303;1280;22561;-71
2023/03/18 04:52:29;;;;;;;52.10;30.00;;;;;;;-0.77;71.49;98923.46;222462;1279;23431;-71
2023/03/18 04:57:41;;;;;;;51.40;29.20;;;;;;;-0.81;71.72;98920.05;222272;1280;22644;-72
2023/03/18 05:02:46;;;;;;;52.50;30.10;;;;;;;-0.82;71.71;98918.75;222440;1275;22542;-72
2023/03/18 05:07:49;;;;;;;53.10;30.60;;;;;;;-0.81;71.98;98914.23;222661;1276;23371;-73
2023/03/18 05:12:55;;;;;;;51.60;29.60;;;;;;;-0.79;71.99;98921.13;222428;1277;22740;-71
2023/03/18 05:18:05;;;;;;;50.70;29.80;;;;;;;-0.75;71.90;98916.51;222416;1276;25586;-71
2023/03/18 05:23:09;;;;;;;50.50;28.90;;;;;;;-0.69;72.32;98918.19;222507;1275;22635;-73
2023/03/18 05:28:28;;;;;;;;;;;;;;;-0.62;72.20;98919.16;222356;1280;25517;-72
2023/03/18 05:34:17;;;;;;;53.00;29.30;;;;;;;-0.51;72.38;98920.24;222569;1280;22547;-72
2023/03/18 05:39:21;;;;;;;49.60;29.40;;;;;;;-0.37;72.51;98931.00;222373;1279;22644;-72
2023/03/18 05:44:24;;;;;;;44.20;27.80;;;;;;;-0.21;72.24;98936.36;222525;1278;22627;-71
2023/03/18 05:49:30;;;;;;;52.70;30.40;;;;;;;-0.06;72.46;98940.73;222456;1280;22600;-72
2023/03/18 05:54:50;;;;;;;60.80;35.00;;;;;;;0.11;72.21;98945.66;222379;1275;22563;-72
2023/03/18 06:00:07;;;;;;;57.10;31.80;;;;;;;0.22;72.12;98950.12;222438;1276;22549;-72
2023/03/18 06:05:21;;;;;;;51.40;30.30;;;;;;;0.35;72.25;98952.42;222624;1273;24291;-71
2023/03/18 06:10:25;;;;;;;58.20;31.60;;;;;;;0.48;71.65;98959.17;222821;1277;24301;-72
2023/03/18 06:15:29;;;;;;;54.20;32.30;;;;;;;0.66;71.75;98956.95;222347;1279;22527;-72
2023/03/18 06:20:41;;;;;;;51.90;31.00;;;;;;;0.85;72.10;98954.35;222384;1278;24297;-72
2023/03/18 06:25:48;;;;;;;53.40;32.40;;;;;;;1.06;71.87;98953.69;222337;1278;22949;-77
2023/03/18 06:30:56;;;;;;;56.20;34.00;;;;;;;1.25;71.57;98946.38;222258;1272;22524;-72
2023/03/18 06:36:23;;;;;;;;;;;;;;;;;;;;;
2023/03/18 06:41:30;;;;;;;55.80;34.20;;;;;;;1.72;71.74;98955.31;222612;1280;24192;-71
2023/03/18 06:46:55;;;;;;;58.60;35.00;;;;;;;2.00;71.04;98960.09;222314;1280;22588;-71
2023/03/18 06:52:10;;;;;;;61.70;36.60;;;;;;;2.29;70.95;98961.25;223119;1275;24743;-71
2023/03/18 06:57:19;;;;;;;56.60;32.70;;;;;;;2.61;70.85;98970.20;222137;1280;24302;-73
2023/03/18 07:02:35;;;;;;;65.50;37.80;;;;;;;2.91;70.47;98976.68;222431;1280;22565;-72
2023/03/18 07:07:41;;;;;;;56.40;31.90;;;;;;;3.24;70.13;98979.86;222257;1280;22594;-74
2023/03/18 07:13:04;;;;;;;67.70;39.40;;;;;;;3.54;69.89;98982.52;222259;1266;22569;-74
2023/03/18 07:18:06;;;;;;;62.60;35.70;;;;;;;3.83;69.99;98988.46;222345;1278;22592;-72
2023/03/18 07:23:18;;;;;;;37.00;20.90;;;;;;;4.13;69.52;98983.57;222408;1273;22531;-73
2023/03/18 07:28:23;;;;;;;34.10;19.00;;;;;;;4.47;68.45;98988.38;222305;1280;24342;-75
2023/03/18 07:33:26;;;;;;;31.10;18.70;;;;;;;4.80;67.40;98986.43;222365;1278;22701;-73
2023/03/18 07:38:29;;;;;;;34.00;18.90;;;;;;;5.13;66.38;98983.84;222339;1268;23261;-73
2023/03/18 07:43:44;;;;;;;35.20;21.00;;;;;;;5.43;65.78;98983.70;222666;1267;22470;-72
2023/03/18 07:49:08;;;;;;;37.50;20.50;;;;;;;5.78;65.28;98982.43;222717;1281;22964;-77
2023/03/18 07:54:30;;;;;;;35.80;22.20;;;;;;;6.09;64.72;98981.61;222644;1273;22584;-75
2023/03/18 07:59:42;;;;;;;32.80;20.00;;;;;;;6.37;64.23;98982.98;222417;1275;22596;-79
2023/03/18 08:04:57;;;;;;;33.20;19.00;;;;;;;6.55;62.84;98983.01;222291;1275;22697;-79
2023/03/18 08:10:22;;;;;;;;;;;;;;;;;;;;;
2023/03/18 08:15:31;;;;;;;29.90;17.50;;;;;;;6.97;61.58;98982.52;222417;1274;22595;-79
2023/03/18 08:20:47;;;;;;;26.50;16.40;;;;;;;7.27;61.32;98982.48;222152;1268;25279;-78
2023/03/18 08:26:25;;;;;;;21.40;13.10;;;;;;;7.63;61.07;98982.86;222268;1275;22590;-76
2023/03/18 08:31:38;;;;;;;20.00;12.50;;;;;;;7.96;59.89;98980.45;222482;1278;25413;-76
2023/03/18 08:36:41;;;;;;;18.90;11.20;;;;;;;8.24;58.16;98981.66;222452;1273;22593;-76
2023/03/18 08:41:44;;;;;;;20.00;10.80;;;;;;;8.49;57.20;98979.98;222688;1257;22556;-76
2023/03/18 08:46:51;;;;;;;15.90;9.90;;;;;;;8.78;57.31;98979.16;222264;1261;22542;-76
2023/03/18 08:52:06;;;;;;;12.30;8.00;;;;;;;9.15;57.04;98981.45;222475;1273;22698;-76
2023/03/18 08:57:09;;;;;;;13.70;7.60;;;;;;;9.47;56.09;98977.38;222490;1274;22657;-74
2023/03/18 09:02:23;;;;;;;10.30;7.00;;;;;;;9.71;54.90;98972.91;222546;1274;23467;-75
2023/03/18 09:07:27;;;;;;;10.10;6.60;;;;;;;9.77;53.23;98968.64;222378;1268;22747;-75
2023/03/18 09:12:32;;;;;;;10.40;6.50;;;;;;;9.78;53.48;98963.95;222321;1274;25509;-75
2023/03/18 09:23:48;;;;;;;9.00;6.40;;;;;;;10.23;52.48;98956.04;222491;1281;23899;-75
2023/03/18 09:29:00;;;;;;;13.20;6.90;;;;;;;10.35;51.71;98954.52;222511;1275;22568;-75
2023/03/18 09:34:08;;;;;;;11.20;7.20;;;;;;;10.41;51.66;98951.95;222347;1280;25346;-75
2023/03/18 09:39:20;;;;;;;10.80;6.40;;;;;;;10.59;51.66;98950.16;222285;1276;22616;-76
2023/03/18 09:44:37;;;;;;;12.10;7.30;;;;;;;10.74;50.94;98946.92;222353;1275;22519;-74
2023/03/18 09:50:24;;;;;;;8.00;5.70;;;;;;;10.88;50.75;98943.58;222554;1273;24408;-76
2023/03/18 09:55:38;;;;;;;9.90;5.30;;;;;;;10.93;49.50;98941.63;222465;1274;22595;-75
2023/03/18 10:00:46;;;;;;;8.30;5.50;;;;;;;10.89;48.70;98939.92;222344;1280;22656;-76
2023/03/18 10:05:55;;;;;;;9.00;5.60;;;;;;;10.85;48.67;98939.77;222543;1281;22588;-74
2023/03/18 10:11:05;;;;;;;9.60;6.30;;;;;;;10.90;48.67;98934.77;222492;1273;22658;-75
2023/03/18 10:16:19;;;;;;;8.80;5.60;;;;;;;10.99;48.61;98940.85;222615;1267;22657;-75
2023/03/18 10:21:51;;;;;;;8.30;5.50;;;;;;;11.17;48.64;98938.32;222274;1274;356312;-74
2023/03/18 10:27:17;;;;;;;8.90;5.60;;;;;;;11.34;48.06;98930.95;222514;1273;22550;-74
2023/03/18 10:33:07;;;;;;;7.20;4.70;;;;;;;11.52;47.68;98932.02;222595;1262;22711;-72
2023/03/18 10:38:21;;;;;;;5.70;3.90;;;;;;;11.64;46.90;98926.13;222474;1271;25308;-73
2023/03/18 10:43:38;;;;;;;6.80;5.00;;;;;;;11.78;46.65;98927.94;222544;1268;22540;-74
2023/03/18 10:48:59;;;;;;;8.00;5.40;;;;;;;11.86;45.63;98921.13;222420;1264;23250;-74
2023/03/18 10:54:26;;;;;;;7.10;4.80;;;;;;;11.92;44.94;98917.13;222518;1274;22554;-72
2023/03/18 10:59:29;;;;;;;6.40;4.40;;;;;;;12.16;45.33;98920.84;222545;1265;22606;-73
2023/03/18 11:04:45;;;;;;;14.30;6.70;;;;;;;12.24;44.12;98912.66;222223;1273;22534;-72
2023/03/18 11:09:47;;;;;;;7.20;4.00;;;;;;;12.38;43.55;98911.79;222519;1258;22536;-73
2023/03/18 11:14:59;;;;;;;8.00;4.50;;;;;;;12.56;43.71;98908.98;222514;1273;22583;-74
2023/03/18 11:20:24;;;;;;;6.40;4.40;;;;;;;12.74;43.39;98904.69;222679;1262;22616;-74
2023/03/18 11:25:28;;;;;;;6.40;4.50;;;;;;;12.91;43.13;98896.26;223735;1265;22560;-73
2023/03/18 11:30:54;;;;;;;7.10;4.50;;;;;;;12.99;41.63;98894.25;222390;1273;22626;-75
2023/03/18 11:36:36;;;;;;;6.50;4.20;;;;;;;13.06;42.17;98893.40;222634;1274;22808;-74
2023/03/18 11:42:38;;;;;;;6.80;4.80;;;;;;;13.07;42.45;98883.77;222701;1273;22552;-71
2023/03/18 11:47:45;;;;;;;7.30;5.20;;;;;;;13.13;42.71;98876.06;222624;1267;25290;-73
2023/03/18 11:52:57;;;;;;;8.30;4.20;;;;;;;13.18;42.10;98868.81;222615;1268;22593;-72
2023/03/18 11:58:54;;;;;;;;;;;;;;;;;;;;;
2023/03/18 12:04:54;;;;;;;;;;;;;;;;;;;;;
2023/03/18 12:10:53;;;;;;;6.80;4.90;;;;;;;13.43;41.04;98857.77;222082;1271;22527;-75
2023/03/18 12:16:41;;;;;;;6.10;4.80;;;;;;;13.66;41.13;98858.31;222430;1281;24421;-77
2023/03/18 12:22:03;;;;;;;6.10;5.20;;;;;;;13.76;40.76;98852.42;222083;1280;24293;-75
2023/03/18 12:27:43;;;;;;;9.90;6.20;;;;;;;13.87;40.52;98847.90;222219;1278;22697;-76
2023/03/18 12:33:13;;;;;;;;;;;;;;;;;;;;;
2023/03/18 12:38:40;;;;;;;7.50;5.80;;;;;;;14.08;40.94;98837.14;222138;1281;22639;-76
2023/03/18 12:44:13;;;;;;;8.50;5.50;;;;;;;14.25;40.81;98833.58;222234;1279;23765;-75
2023/03/18 12:49:52;;;;;;;9.50;5.70;;;;;;;14.41;40.27;98831.65;222184;1278;24209;-75
2023/03/18 12:55:10;;;;;;;9.50;5.80;;;;;;;14.48;40.45;98823.95;222251;1281;22587;-75
2023/03/18 13:00:24;;;;;;;9.40;6.30;;;;;;;14.52;39.96;98817.31;222126;1270;25308;-77
2023/03/18 13:06:04;;;;;;;8.90;5.30;;;;;;;14.53;40.28;98816.80;222195;1279;22594;-75
2023/03/18 13:11:33;;;;;;;8.50;5.90;;;;;;;14.65;40.55;98810.92;222243;1281;25279;-77
2023/03/18 13:16:40;;;;;;;9.20;5.80;;;;;;;14.73;40.01;98814.23;222256;1281;24237;-76
2023/03/18 13:22:11;;;;;;;11.80;6.30;;;;;;;14.72;39.51;98806.91;222135;1281;25419;-76
2023/03/18 13:27:36;;;;;;;8.80;5.10;;;;;;;14.69;39.28;98805.05;222247;1270;24363;-76
2023/03/18 13:32:54;;;;;;;8.50;5.20;;;;;;;14.73;39.07;98802.48;222092;1278;22555;-76
2023/03/18 13:38:32;;;;;;;12.10;8.10;;;;;;;14.76;39.48;98798.39;222199;1281;22686;-76
2023/03/18 13:43:48;;;;;;;6.50;4.10;;;;;;;14.84;38.20;98799.73;222178;1280;25409;-76
2023/03/18 13:48:57;;;;;;;8.30;4.10;;;;;;;14.79;38.25;98793.14;222164;1276;23720;-76
2023/03/18 13:54:12;;;;;;;5.20;3.70;;;;;;;14.77;37.98;98790.65;222067;1279;25353;-76
2023/03/18 13:59:36;;;;;;;5.60;3.50;;;;;;;14.63;37.03;98787.78;222184;1278;25417;-75
2023/03/18 14:04:50;;;;;;;8.90;4.70;;;;;;;14.47;37.33;98785.14;222210;1281;22530;-75
2023/03/18 14:10:04;;;;;;;6.60;3.50;;;;;;;14.41;37.77;98782.66;222246;1282;22536;-76
2023/03/18 14:15:44;;;;;;;4.70;3.60;;;;;;;14.39;37.97;98779.33;222131;1268;24494;-76
2023/03/18 14:21:03;;;;;;;6.10;3.70;;;;;;;14.44;37.76;98771.80;222164;1282;22946;-76
2023/03/18 14:26:41;;;;;;;4.80;3.50;;;;;;;14.53;37.73;98770.17;222133;1277;22614;-76
2023/03/18 14:32:10;;;;;;;5.70;3.80;;;;;;;14.64;37.98;98771.38;222038;1281;24665;-75
2023/03/18 14:37:22;;;;;;;8.00;4.20;;;;;;;14.75;38.10;98765.65;222056;1281;22564;-76
2023/03/18 14:42:57;;;;;;;7.80;4.30;;;;;;;14.89;38.00;98767.31;222191;1281;22595;-75
2023/03/18 14:48:27;;;;;;;7.00;3.80;;;;;;;14.89;37.87;98763.34;222164;1281;22678;-76
2023/03/18 14:53:36;;;;;;;5.20;3.80;;;;;;;14.83;37.67;98763.84;221988;1281;22614;-76
2023/03/18 14:59:24;;;;;;;6.60;3.80;;;;;;;14.73;37.57;98764.60;221981;1281;22566;-75
2023/03/18 15:04:27;;;;;;;4.30;3.60;;;;;;;14.56;37.67;98769.98;221952;1283;22654;-75
2023/03/18 15:10:18;;;;;;;5.10;3.80;;;;;;;14.35;37.40;98771.59;221615;1285;22547;-76
2023/03/18 15:15:37;;;;;;;7.30;3.80;;;;;;;14.19;37.91;98763.93;221636;1285;22777;-76
2023/03/18 15:21:05;;;;;;;5.50;4.00;;;;;;;14.10;38.40;98766.42;221998;1268;25339;-75
2023/03/18 15:26:32;;;;;;;6.30;3.90;;;;;;;14.02;38.45;98763.64;221651;1283;25017;-77
2023/03/18 15:32:38;;;;;;;7.20;4.70;;;;;;;13.96;38.65;98758.21;221619;1284;24295;-75
2023/03/18 15:38:11;;;;;;;5.90;3.90;;;;;;;13.94;38.92;98761.39;221082;1284;22602;-76
2023/03/18 15:43:26;;;;;;;5.20;3.80;;;;;;;13.86;39.03;98760.88;221455;1284;22726;-75
2023/03/18 15:48:42;;;;;;;5.00;3.50;;;;;;;13.78;39.55;98764.13;221590;1277;22756;-75
2023/03/18 15:53:51;;;;;;;6.50;4.20;;;;;;;13.69;39.86;98771.13;221569;1284;22599;-75
2023/03/18 15:59:21;;;;;;;5.70;3.50;;;;;;;13.58;39.97;98771.70;221489;1275;25336;-75
2023/03/18 16:04:29;;;;;;;5.10;4.00;;;;;;;13.41;40.03;98777.60;222113;1278;24300;-76
2023/03/18 16:09:33;;;;;;;8.60;4.00;;;;;;;13.25;40.27;98780.31;222178;1260;23178;-76
2023/03/18 16:14:47;;;;;;;5.00;3.70;;;;;;;13.11;40.65;98787.02;222108;1278;24372;-76
2023/03/18 16:19:54;;;;;;;6.10;4.00;;;;;;;12.91;40.60;98792.06;222179;1281;22760;-76
2023/03/18 16:24:56;;;;;;;5.50;3.90;;;;;;;12.72;40.69;98794.84;221980;1281;22671;-75
2023/03/18 16:29:59;;;;;;;6.50;4.10;;;;;;;12.51;40.91;98800.38;222212;1280;22552;-75
2023/03/18 16:35:11;;;;;;;5.60;3.90;;;;;;;12.28;40.84;98802.26;222242;1281;22526;-75
2023/03/18 16:40:27;;;;;;;9.00;4.30;;;;;;;12.06;40.97;98806.73;223052;1275;25355;-75
2023/03/18 16:45:42;;;;;;;7.50;4.20;;;;;;;11.82;41.13;98811.98;222076;1281;22695;-75
2023/03/18 16:51:08;;;;;;;6.90;4.40;;;;;;;11.55;41.44;98818.79;222162;1278;24459;-75
2023/03/18 16:56:38;;;;;;;6.40;4.00;;;;;;;11.26;41.88;98810.23;222059;1274;24501;-75
2023/03/18 17:01:42;;;;;;;8.00;4.90;;;;;;;11.01;41.75;98813.40;222146;1281;23535;-75
2023/03/18 17:06:46;;;;;;;10.20;6.10;;;;;;;10.77;41.98;98817.23;221987;1281;22671;-75
2023/03/18 17:11:55;;;;;;;8.80;5.60;;;;;;;10.54;42.51;98820.73;222150;1282;22738;-75
2023/03/18 17:17:10;;;;;;;9.40;6.00;;;;;;;10.32;42.66;98827.15;222016;1279;25351;-76
2023/03/18 17:22:32;;;;;;;11.40;6.70;;;;;;;10.10;42.93;98830.89;222117;1280;25267;-76
2023/03/18 17:27:45;;;;;;;11.40;6.30;;;;;;;9.85;43.20;98837.30;222178;1282;22559;-75
2023/03/18 17:32:49;;;;;;;11.80;6.00;;;;;;;9.62;43.46;98831.36;222058;1265;25349;-76
2023/03/18 17:37:55;;;;;;;12.30;6.00;;;;;;;9.39;43.71;98831.43;222240;1282;22635;-75
2023/03/18 17:43:02;;;;;;;12.50;6.50;;;;;;;9.18;44.04;98834.04;222209;1281;22599;-75
2023/03/18 17:48:24;;;;;;;16.00;9.10;;;;;;;8.98;44.08;98837.36;222839;1278;22621;-75
2023/03/18 17:53:37;;;;;;;18.50;10.40;;;;;;;8.80;43.90;98841.25;222091;1282;22709;-75
2023/03/18 17:58:43;;;;;;;18.50;10.90;;;;;;;8.61;44.32;98841.10;222119;1281;22532;-76
2023/03/18 18:03:46;;;;;;;19.90;11.70;;;;;;;8.44;44.91;98840.81;222085;1279;27213;-76
2023/03/18 18:08:49;;;;;;;22.60;13.70;;;;;;;8.27;45.15;98839.88;222137;1282;24413;-75
2023/03/18 18:13:56;;;;;;;24.50;14.80;;;;;;;8.13;45.43;98841.48;222164;1281;23622;-75
2023/03/18 18:19:06;;;;;;;31.10;16.10;;;;;;;7.99;45.67;98844.36;222144;1281;25349;-75
2023/03/18 18:24:25;;;;;;;32.60;18.10;;;;;;;7.86;46.01;98850.46;222773;1265;23291;-75
2023/03/18 18:29:29;;;;;;;34.90;20.50;;;;;;;7.70;46.37;98846.06;222192;1275;25271;-75
2023/03/18 18:34:37;;;;;;;39.80;23.80;;;;;;;7.56;46.22;98845.86;222137;1282;22852;-75
2023/03/18 18:39:41;;;;;;;43.70;24.70;;;;;;;7.44;46.74;98846.63;222611;1282;22638;-75
2023/03/18 18:44:52;;;;;;;42.80;24.50;;;;;;;7.32;46.91;98843.67;222139;1281;25326;-75
2023/03/18 18:50:00;;;;;;;44.00;24.30;;;;;;;7.21;46.92;98849.90;222210;1265;22602;-76
2023/03/18 18:55:05;;;;;;;43.00;23.40;;;;;;;7.09;47.08;98852.13;222180;1282;22575;-75
2023/03/18 19:00:19;;;;;;;45.20;24.70;;;;;;;7.00;46.94;98852.39;222182;1260;23265;-76
2023/03/18 19:05:22;;;;;;;43.90;24.20;;;;;;;6.93;47.21;98853.91;221977;1276;23132;-74
2023/03/18 19:10:29;;;;;;;43.10;24.00;;;;;;;6.87;47.36;98853.45;222090;1281;22989;-74
2023/03/18 19:15:32;;;;;;;43.20;24.50;;;;;;;6.81;47.47;98852.05;222020;1279;22568;-75
2023/03/18 19:20:47;;;;;;;38.60;22.50;;;;;;;6.76;47.27;98849.25;222144;1281;22679;-75
2023/03/18 19:25:50;;;;;;;46.50;25.80;;;;;;;6.71;47.64;98849.67;222526;1282;23352;-75
2023/03/18 19:31:03;;;;;;;40.80;22.90;;;;;;;6.67;47.85;98851.92;222202;1278;22549;-75
2023/03/18 19:36:15;;;;;;;38.40;21.30;;;;;;;6.63;47.88;98847.63;222160;1281;22591;-75
2023/03/18 19:41:18;;;;;;;39.70;21.70;;;;;;;6.59;48.09;98855.55;221926;1282;26047;-75
2023/03/18 19:46:37;;;;;;;40.60;21.30;;;;;;;6.54;48.18;98859.64;222111;1278;22599;-76
2023/03/18 19:51:48;;;;;;;40.70;22.70;;;;;;;6.47;48.36;98866.62;222250;1282;22550;-75
2023/03/18 19:56:52;;;;;;;38.40;21.20;;;;;;;6.40;48.41;98867.92;222504;1281;22656;-74
2023/03/18 20:01:57;;;;;;;39.40;21.90;;;;;;;6.31;48.93;98870.73;222134;1276;25342;-74
2023/03/18 20:07:02;;;;;;;41.80;23.10;;;;;;;6.22;49.27;98870.10;222243;1281;23006;-75
2023/03/18 20:12:38;;;;;;;48.90;25.90;;;;;;;6.12;49.33;98870.61;222139;1281;23036;-75
2023/03/18 20:17:44;;;;;;;47.60;24.00;;;;;;;6.05;49.79;98876.65;222196;1278;24391;-75
2023/03/18 20:22:55;;;;;;;44.20;23.30;;;;;;;6.02;50.19;98880.08;222105;1258;22632;-75
2023/03/18 20:27:59;;;;;;;53.10;29.90;;;;;;;6.01;50.37;98883.27;221969;1282;22572;-76
2023/03/18 20:33:03;;;;;;;43.90;23.50;;;;;;;5.97;50.51;98882.27;222068;1281;22551;-75
2023/03/18 20:38:36;;;;;;;43.50;24.40;;;;;;;5.96;50.81;98883.80;222054;1278;23330;-78
2023/03/18 20:43:40;;;;;;;51.60;26.40;;;;;;;5.97;51.05;98884.86;222047;1282;25490;-75
2023/03/18 20:48:42;;;;;;;51.60;26.60;;;;;;;5.98;51.12;98884.45;221913;1281;25315;-75
2023/03/18 20:53:47;;;;;;;50.20;26.40;;;;;;;5.99;51.34;98883.34;222032;1282;25333;-75
2023/03/18 20:58:50;;;;;;;44.90;25.80;;;;;;;5.97;51.53;98885.07;222324;1280;22589;-75
2023/03/18 21:03:59;;;;;;;54.70;26.80;;;;;;;5.94;51.41;98889.13;222287;1279;22674;-74
2023/03/18 21:09:03;;;;;;;51.00;27.80;;;;;;;5.87;51.57;98880.86;222224;1282;22656;-75
2023/03/18 21:14:14;;;;;;;51.70;27.00;;;;;;;5.78;51.67;98879.52;222015;1282;23051;-75
2023/03/18 21:19:23;;;;;;;60.80;30.80;;;;;;;5.66;51.86;98878.92;222236;1282;22597;-75
2023/03/18 21:24:27;;;;;;;58.80;30.70;;;;;;;5.52;51.92;98877.95;221997;1282;22563;-74
2023/03/18 21:29:32;;;;;;;57.00;31.70;;;;;;;5.37;52.11;98878.20;222000;1282;23270;-75
2023/03/18 21:34:35;;;;;;;62.30;31.00;;;;;;;5.22;52.19;98878.48;222198;1282;25245;-74
2023/03/18 21:39:42;;;;;;;55.40;28.30;;;;;;;5.09;52.50;98873.19;222289;1282;26253;-77
2023/03/18 21:44:45;;;;;;;63.10;31.00;;;;;;;4.96;52.65;98871.27;222223;1282;22656;-75
2023/03/18 21:49:50;;;;;;;54.30;27.80;;;;;;;4.85;52.68;98866.11;222115;1282;22546;-75
2023/03/18 21:54:57;;;;;;;57.20;29.10;;;;;;;4.77;53.03;98865.66;222014;1282;22677;-74
2023/03/18 22:00:01;;;;;;;59.20;30.10;;;;;;;4.70;53.29;98864.63;222130;1280;22586;-74
2023/03/18 22:05:24;;;;;;;62.00;31.80;;;;;;;4.63;53.58;98862.02;221948;1270;23362;-75
2023/03/18 22:10:30;;;;;;;55.10;29.20;;;;;;;4.54;53.94;98861.40;221766;1283;22540;-75
2023/03/18 22:15:55;;;;;;;54.70;29.40;;;;;;;4.48;53.94;98862.08;221802;1283;22550;-75
2023/03/18 22:21:00;;;;;;;57.90;30.40;;;;;;;4.40;54.02;98862.62;221529;1283;346682;-76
2023/03/18 22:26:05;;;;;;;55.40;28.90;;;;;;;4.32;54.16;98865.73;221753;1266;25345;-76
2023/03/18 22:31:16;;;;;;;53.40;27.20;;;;;;;4.23;54.22;98866.54;221829;1282;22740;-76
2023/03/18 22:36:28;;;;;;;53.90;26.80;;;;;;;4.14;54.44;98866.37;222062;1277;22524;-76
2023/03/18 22:41:36;;;;;;;54.00;29.20;;;;;;;4.07;54.52;98865.82;222145;1280;25407;-76
2023/03/18 22:46:45;;;;;;;55.30;28.00;;;;;;;4.00;54.67;98866.30;222202;1280;23013;-74
2023/03/18 22:52:29;;;;;;;50.70;26.90;;;;;;;3.93;54.63;98863.64;222117;1282;25338;-75
2023/03/18 22:57:32;;;;;;;45.70;23.50;;;;;;;3.86;54.76;98860.66;222202;1263;23060;-75
2023/03/18 23:02:35;;;;;;;44.00;22.50;;;;;;;3.82;54.72;98866.77;221990;1280;24412;-76
2023/03/18 23:07:49;;;;;;;38.90;21.30;;;;;;;3.79;54.74;98870.00;222066;1282;22565;-75
2023/03/18 23:12:52;;;;;;;39.20;20.60;;;;;;;3.78;54.68;98869.62;221936;1264;23116;-76
2023/03/18 23:17:54;;;;;;;37.00;19.30;;;;;;;3.77;54.68;98874.05;222032;1280;26132;-75
2023/03/18 23:23:00;;;;;;;37.80;20.70;;;;;;;3.76;54.77;98875.51;222184;1281;22667;-74
2023/03/18 23:28:03;;;;;;;42.80;20.70;;;;;;;3.75;54.67;98875.42;222029;1280;22570;-74
2023/03/18 23:33:08;;;;;;;38.50;20.60;;;;;;;3.72;54.73;98876.42;222083;1282;22784;-75
2023/03/18 23:38:10;;;;;;;40.80;20.60;;;;;;;3.69;54.78;98883.71;222234;1282;22536;-75
2023/03/18 23:43:31;;;;;;;41.60;21.00;;;;;;;3.64;54.90;98884.98;222033;1282;24997;-74
2023/03/18 23:48:34;;;;;;;42.20;21.40;;;;;;;3.58;54.67;98882.91;222088;1282;25403;-75
2023/03/18 23:53:39;;;;;;;38.90;21.70;;;;;;;3.53;54.98;98881.66;222083;1282;22564;-75
2023/03/18 23:58:42;;;;;;;40.70;20.60;;;;;;;3.46;55.11;98876.68;222156;1282;22575;-74
